Time;durP1;ratioP1;P1;durP2;ratioP2;P2;SDS_P1;SDS_P2;PMS_P1;PMS_P2;Temp;Humidity;BMP_temperature;BMP_pressure;BME280_temperature;BME280_humidity;BME280_pressure;Samples;Min_cycle;Max_cycle;Signal;HPM_P1;HPM_P2
2021/10/31 00:01:13;;;;;;;;;6.00;5.00;;;;;15.69;56.15;98451.00;4820227;28;104333;-69
2021/10/31 00:03:40;;;;;;;;;9.00;6.75;;;;;15.68;56.33;98453.94;4796986;29;102430;-69
2021/10/31 00:06:07;;;;;;;;;7.25;5.75;;;;;15.68;56.41;98457.50;4819547;28;103277;-69
2021/10/31 00:08:34;;;;;;;;;6.50;5.25;;;;;15.67;56.56;98464.03;4811634;29;102514;-69
2021/10/31 00:11:02;;;;;;;;;5.00;5.00;;;;;15.68;56.27;98460.22;4820965;28;104441;-68
2021/10/31 00:13:30;;;;;;;;;5.67;5.67;;;;;15.68;56.65;98468.41;4817427;28;103738;-69
2021/10/31 00:15:57;;;;;;;;;8.25;7.00;;;;;15.68;56.34;98465.69;4803417;29;102229;-69
2021/10/31 00:18:25;;;;;;;;;7.00;6.75;;;;;15.69;56.54;98471.97;4825397;28;102700;-69
2021/10/31 00:20:52;;;;;;;;;6.25;5.00;;;;;15.68;56.47;98465.69;4813870;28;102823;-68
2021/10/31 00:23:19;;;;;;;;;8.00;6.25;;;;;15.68;56.00;98464.84;4825573;28;102645;-69
2021/10/31 00:25:46;;;;;;;;;7.00;7.00;;;;;15.66;56.45;98478.75;4803154;29;103496;-69
2021/10/31 00:28:14;;;;;;;;;7.00;6.67;;;;;15.66;56.48;98472.47;4812646;28;102189;-69
2021/10/31 00:30:41;;;;;;;;;5.75;5.75;;;;;15.65;56.53;98477.06;4816278;28;104180;-69
2021/10/31 00:33:08;;;;;;;;;7.50;7.50;;;;;15.64;56.41;98475.41;4817264;28;106284;-69
2021/10/31 00:35:36;;;;;;;;;6.00;5.50;;;;;15.64;56.32;98469.97;4808136;29;103707;-68
2021/10/31 00:38:03;;;;;;;;;6.00;4.75;;;;;15.63;56.41;98466.41;4823742;28;103510;-69
2021/10/31 00:40:32;;;;;;;;;5.50;5.50;;;;;15.62;56.29;98472.09;4786952;29;104321;-69
2021/10/31 00:42:59;;;;;;;;;7.75;7.00;;;;;15.61;56.04;98457.66;4816802;28;102698;-68
2021/10/31 00:45:26;;;;;;;;;6.00;5.75;;;;;15.62;56.15;98480.28;4821485;28;102665;-69
2021/10/31 00:47:54;;;;;;;;;6.00;5.00;;;;;15.62;56.20;98483.00;4805774;28;102505;-69
2021/10/31 00:50:21;;;;;;;;;5.50;5.50;;;;;15.61;56.23;98478.63;4821987;28;104258;-68
2021/10/31 00:52:48;;;;;;;;;6.00;6.00;;;;;15.60;56.14;98485.97;4791647;29;102512;-68
2021/10/31 00:55:16;;;;;;;;;7.25;7.00;;;;;15.61;56.27;98486.78;4788620;29;102598;-69
2021/10/31 00:57:43;;;;;;;;;7.33;5.67;;;;;15.62;56.19;98493.91;4818840;28;102673;-69
2021/10/31 01:00:11;;;;;;;;;7.25;7.25;;;;;15.60;56.75;98479.69;4821245;28;104154;-69
2021/10/31 01:02:39;;;;;;;;;7.00;7.00;;;;;15.59;56.36;98475.28;4671535;28;102595;-69
2021/10/31 01:05:09;;;;;;;;;6.00;6.00;;;;;15.58;56.56;98488.06;4579189;29;103032;-69
2021/10/31 01:08:11;;;;;;;;;6.00;6.00;;;;;15.56;56.27;98484.78;4619611;29;103529;-69
2021/10/31 01:10:49;;;;;;;;;11.00;8.25;;;;;15.57;56.53;98489.16;4633308;29;109155;-69
2021/10/31 01:13:23;;;;;;;;;7.50;6.00;;;;;15.56;56.38;98479.31;4598207;29;103581;-69
2021/10/31 01:15:58;;;;;;;;;8.50;7.25;;;;;15.57;56.40;98480.16;4715303;29;102451;-69
2021/10/31 01:18:40;;;;;;;;;6.00;6.00;;;;;15.55;55.92;98471.38;4732217;28;103022;-69
2021/10/31 01:21:36;;;;;;;;;6.75;5.75;;;;;15.55;56.67;98482.28;4678246;28;108907;-69
2021/10/31 01:24:27;;;;;;;;;7.50;7.00;;;;;15.53;56.29;98495.31;4722752;28;104199;-69
2021/10/31 01:27:05;;;;;;;;;6.00;5.00;;;;;15.54;55.95;98486.06;4714553;29;103687;-69
2021/10/31 01:29:48;;;;;;;;;6.00;5.25;;;;;15.53;56.34;98492.59;4721292;28;103462;-69
2021/10/31 01:32:43;;;;;;;;;5.00;5.00;;;;;15.54;55.88;98486.06;4691235;28;108813;-68
2021/10/31 01:35:22;;;;;;;;;7.25;6.00;;;;;15.53;56.40;98477.09;4723889;28;102423;-69
2021/10/31 01:38:17;;;;;;;;;7.25;5.50;;;;;15.53;56.01;98468.06;4709914;28;103740;-69
2021/10/31 01:40:49;;;;;;;;;5.50;5.50;;;;;15.53;56.51;98476.25;4720233;28;104283;-69
2021/10/31 01:43:20;;;;;;;;;5.25;5.25;;;;;15.51;56.51;98476.47;4692457;28;109422;-68
2021/10/31 01:46:01;;;;;;;;;7.50;5.50;;;;;15.51;56.42;98489.25;4735910;28;103999;-68
2021/10/31 01:48:50;;;;;;;;;4.75;4.25;;;;;15.51;56.53;98475.63;4703557;28;104089;-68
2021/10/31 01:51:20;;;;;;;;;6.50;6.50;;;;;15.51;56.33;98478.38;4760723;28;102593;-69
2021/10/31 01:53:50;;;;;;;;;9.25;8.00;;;;;15.49;56.05;98485.94;4725813;29;104094;-69
2021/10/31 01:56:19;;;;;;;;;7.75;6.75;;;;;15.49;55.75;98483.22;4758248;29;104343;-69
2021/10/31 01:58:59;;;;;;;;;8.25;6.00;;;;;15.48;56.34;98481.53;4739142;29;102678;-69
2021/10/31 02:01:28;;;;;;;;;7.25;6.75;;;;;15.47;56.39;98474.41;4742779;28;106014;-69
2021/10/31 02:03:55;;;;;;;;;4.25;3.75;;;;;15.45;56.31;98482.00;4749685;29;107555;-69
2021/10/31 02:06:22;;;;;;;;;8.75;6.25;;;;;15.44;56.44;98474.91;4782499;29;103951;-69
2021/10/31 02:08:49;;;;;;;;;6.25;5.50;;;;;15.44;56.43;98480.34;4774477;28;103371;-68
2021/10/31 02:11:16;;;;;;;;;6.75;6.00;;;;;15.44;56.21;98483.06;4790340;29;102234;-69
2021/10/31 02:13:46;;;;;;;;;5.00;5.00;;;;;15.43;56.15;98479.53;4804612;29;104429;-69
2021/10/31 02:16:15;;;;;;;;;6.00;5.00;;;;;15.44;56.45;98477.63;4770273;28;102552;-69
2021/10/31 02:18:43;;;;;;;;;6.75;6.00;;;;;15.45;56.40;98479.25;4820098;29;102471;-69
2021/10/31 02:21:10;;;;;;;;;10.00;7.75;;;;;15.44;56.26;98486.63;4800980;29;102294;-68
2021/10/31 02:23:37;;;;;;;;;6.25;6.25;;;;;15.45;56.20;98487.44;4803677;28;104154;-68
2021/10/31 02:26:05;;;;;;;;;4.25;4.25;;;;;15.44;56.24;98496.69;4820709;28;102570;-69
2021/10/31 02:28:32;;;;;;;;;5.00;5.00;;;;;15.43;56.34;98490.41;4800613;29;102899;-68
2021/10/31 02:30:59;;;;;;;;;7.50;6.50;;;;;15.42;56.05;98493.38;4827114;28;103272;-69
2021/10/31 02:33:27;;;;;;;;;5.50;5.00;;;;;15.42;56.45;98487.91;4794402;29;104080;-69
2021/10/31 02:35:55;;;;;;;;;7.00;6.00;;;;;15.40;56.15;98482.69;4821330;28;102442;-69
2021/10/31 02:38:22;;;;;;;;;7.00;5.75;;;;;15.39;56.02;98477.50;4805370;28;102154;-69
2021/10/31 02:40:49;;;;;;;;;8.50;6.50;;;;;15.38;56.04;98481.28;4807808;29;104607;-69
2021/10/31 02:43:16;;;;;;;;;7.00;6.00;;;;;15.37;56.08;98483.16;4798440;29;104431;-69
2021/10/31 02:45:43;;;;;;;;;7.25;6.25;;;;;15.37;56.43;98479.63;4818804;28;103287;-68
2021/10/31 02:48:11;;;;;;;;;6.00;6.00;;;;;15.36;56.42;98486.13;4804846;29;102764;-69
2021/10/31 02:50:43;;;;;;;;;7.50;7.00;;;;;15.35;56.75;98487.22;4802613;29;105855;-69
2021/10/31 02:53:22;;;;;;;;;6.75;6.75;;;;;15.34;56.75;98491.00;4801114;29;104369;-69
2021/10/31 02:56:15;;;;;;;;;6.50;6.50;;;;;15.33;56.28;98501.06;4829189;28;104115;-69
2021/10/31 02:58:54;;;;;;;;;8.25;6.25;;;;;15.36;56.17;98500.56;4816858;28;101985;-68
2021/10/31 03:01:21;;;;;;;;;7.75;6.25;;;;;15.36;56.18;98497.03;4819715;28;103414;-69
2021/10/31 03:03:51;;;;;;;;;6.25;4.25;;;;;15.35;56.24;98495.38;4819588;28;104228;-69
2021/10/31 03:06:20;;;;;;;;;8.00;7.00;;;;;15.34;56.05;98489.09;4820122;28;103445;-69
2021/10/31 03:08:47;;;;;;;;;5.75;5.75;;;;;15.33;56.37;98473.81;4824574;28;102398;-69
2021/10/31 03:11:14;;;;;;;;;6.75;6.00;;;;;15.34;56.58;98486.38;4822415;28;102691;-69
2021/10/31 03:13:41;;;;;;;;;7.75;7.00;;;;;15.33;56.29;98483.88;4821520;29;104108;-68
2021/10/31 03:16:08;;;;;;;;;7.50;4.25;;;;;15.31;56.27;98480.56;4822045;28;102163;-69
2021/10/31 03:18:36;;;;;;;;;6.00;6.00;;;;;15.29;56.27;98475.34;4805104;28;102821;-68
2021/10/31 03:21:03;;;;;;;;;8.75;7.75;;;;;15.29;56.24;98475.34;4789078;29;102274;-69
2021/10/31 03:23:30;;;;;;;;;8.00;8.00;;;;;15.29;56.43;98477.25;4810165;28;104076;-69
2021/10/31 03:25:58;;;;;;;;;5.75;5.50;;;;;15.27;56.41;98468.47;4801500;28;102260;-69
2021/10/31 03:28:25;;;;;;;;;6.50;6.50;;;;;15.27;56.17;98468.47;4800548;29;104100;-69
2021/10/31 03:30:52;;;;;;;;;7.25;6.25;;;;;15.26;56.12;98467.66;4824510;28;102520;-69
2021/10/31 03:33:19;;;;;;;;;7.00;7.00;;;;;15.25;56.39;98471.44;4814833;28;104034;-69
2021/10/31 03:35:46;;;;;;;;;7.75;6.00;;;;;15.26;56.11;98461.38;4802556;28;102109;-69
2021/10/31 03:38:13;;;;;;;;;8.00;7.00;;;;;15.27;56.29;98455.66;4805641;29;102234;-69
2021/10/31 03:40:40;;;;;;;;;8.00;6.25;;;;;15.30;55.96;98463.38;4799692;28;104841;-69
2021/10/31 03:43:07;;;;;;;;;7.25;6.50;;;;;15.32;55.24;98454.97;4788094;28;104106;-69
2021/10/31 03:45:34;;;;;;;;;6.25;5.25;;;;;15.30;56.00;98447.03;4808905;29;102274;-68
2021/10/31 03:48:03;;;;;;;;;8.75;7.50;;;;;15.33;55.92;98448.47;4795118;28;102391;-69
2021/10/31 03:50:31;;;;;;;;;5.00;5.00;;;;;15.35;56.30;98451.78;4812176;28;102320;-69
2021/10/31 03:52:58;;;;;;;;;11.00;7.00;;;;;15.34;56.32;98447.41;4811014;29;104316;-68
2021/10/31 03:55:25;;;;;;;;;8.00;5.75;;;;;15.35;56.01;98470.88;4792539;29;102712;-68
2021/10/31 03:57:55;;;;;;;;;5.00;5.00;;;;;15.37;56.01;98460.53;4808572;28;103660;-69
2021/10/31 04:00:22;;;;;;;;;5.50;5.50;;;;;15.36;56.07;98475.22;4794187;29;102714;-69
2021/10/31 04:02:49;;;;;;;;;5.50;5.50;;;;;15.36;56.13;98473.31;4817359;28;104123;-69
2021/10/31 04:05:16;;;;;;;;;7.75;6.75;;;;;15.37;56.24;98485.06;4825158;28;102151;-69
2021/10/31 04:07:43;;;;;;;;;8.00;7.25;;;;;15.37;56.19;98507.69;4823366;29;102036;-69
2021/10/31 04:10:10;;;;;;;;;7.75;6.25;;;;;15.38;55.52;98501.19;4806662;29;102765;-69
2021/10/31 04:12:37;;;;;;;;;6.00;5.25;;;;;15.40;55.82;98500.97;4821054;28;104365;-69
2021/10/31 04:15:06;;;;;;;;;6.00;5.00;;;;;15.37;55.71;98502.25;4797535;28;102203;-69
2021/10/31 04:17:33;;;;;;;;;5.50;5.50;;;;;15.39;56.21;98502.03;4806994;29;102933;-68
2021/10/31 04:20:00;;;;;;;;;7.00;6.00;;;;;15.40;55.86;98503.69;4824968;28;102401;-69
2021/10/31 04:22:28;;;;;;;;;9.00;7.00;;;;;15.41;56.05;98511.59;4832634;28;104057;-69
2021/10/31 04:24:55;;;;;;;;;6.25;5.25;;;;;15.42;55.72;98520.63;4809088;29;103746;-69
2021/10/31 04:27:22;;;;;;;;;9.75;6.00;;;;;15.42;55.63;98513.28;4822145;28;103629;-69
2021/10/31 04:29:49;;;;;;;;;6.00;5.25;;;;;15.40;55.78;98515.38;4811391;29;104016;-69
2021/10/31 04:32:16;;;;;;;;;7.50;7.50;;;;;15.40;55.93;98518.13;4789436;29;107790;-69
2021/10/31 04:34:43;;;;;;;;;8.75;6.00;;;;;15.39;55.73;98524.66;4822349;28;102196;-69
2021/10/31 04:37:10;;;;;;;;;6.25;6.00;;;;;15.39;55.96;98521.09;4806289;29;102580;-69
2021/10/31 04:39:37;;;;;;;;;7.75;6.25;;;;;15.39;55.72;98527.38;4823723;28;102985;-69
2021/10/31 04:42:05;;;;;;;;;6.25;4.50;;;;;15.38;55.75;98539.34;4787989;28;104310;-69
2021/10/31 04:44:33;;;;;;;;;10.00;7.00;;;;;15.39;55.77;98523.81;4820044;28;102464;-69
2021/10/31 04:47:00;;;;;;;;;7.75;6.00;;;;;15.39;55.60;98530.09;4820238;28;103303;-69
2021/10/31 04:49:27;;;;;;;;;7.00;6.00;;;;;15.38;55.61;98530.31;4808451;28;103653;-69
2021/10/31 04:51:55;;;;;;;;;7.75;6.75;;;;;15.37;55.64;98520.47;4826902;28;104068;-68
2021/10/31 04:54:22;;;;;;;;;8.00;6.75;;;;;15.39;55.71;98532.00;4803416;28;102660;-69
2021/10/31 04:56:49;;;;;;;;;6.50;6.25;;;;;15.38;55.50;98524.88;4813416;28;102576;-69
2021/10/31 04:59:16;;;;;;;;;6.00;5.00;;;;;15.40;55.68;98525.47;4771616;28;102329;-69
2021/10/31 05:01:45;;;;;;;;;8.50;6.50;;;;;15.36;55.63;98511.47;4816304;28;104167;-68
2021/10/31 05:04:13;;;;;;;;;7.75;7.75;;;;;15.40;55.24;98520.03;4822600;28;102554;-68
2021/10/31 05:06:40;;;;;;;;;8.00;7.50;;;;;15.40;55.51;98514.59;4809428;28;102503;-68
2021/10/31 05:09:07;;;;;;;;;6.75;6.00;;;;;15.40;55.63;98528.22;4823611;28;102399;-68
2021/10/31 05:11:34;;;;;;;;;8.25;6.25;;;;;15.37;55.73;98526.75;4805182;29;104156;-69
2021/10/31 05:14:01;;;;;;;;;6.75;6.00;;;;;15.38;55.70;98530.31;4827102;28;104905;-69
2021/10/31 05:16:28;;;;;;;;;6.75;6.00;;;;;15.36;55.50;98519.66;4825230;28;102668;-69
2021/10/31 05:18:56;;;;;;;;;8.25;8.25;;;;;15.35;55.59;98526.19;4820470;28;102462;-69
2021/10/31 05:21:23;;;;;;;;;7.25;6.50;;;;;15.36;55.60;98518.81;4781755;28;104244;-69
2021/10/31 05:23:50;;;;;;;;;2.50;2.00;;;;;15.34;55.71;98527.25;4824613;28;102361;-69
2021/10/31 05:26:18;;;;;;;;;7.50;7.25;;;;;15.34;55.76;98520.97;4820345;28;103465;-69
2021/10/31 05:28:45;;;;;;;;;6.00;5.00;;;;;15.33;55.66;98517.41;4822650;28;102367;-69
2021/10/31 05:31:12;;;;;;;;;9.25;6.75;;;;;15.35;56.03;98526.19;4809240;29;104070;-69
2021/10/31 05:33:39;;;;;;;;;6.50;6.25;;;;;15.34;55.31;98523.69;4815959;28;102600;-68
2021/10/31 05:36:06;;;;;;;;;9.25;7.25;;;;;15.32;55.57;98528.53;4820732;28;103071;-69
2021/10/31 05:38:33;;;;;;;;;6.00;5.75;;;;;15.29;55.61;98543.44;4826677;29;102614;-68
2021/10/31 05:41:02;;;;;;;;;6.75;6.50;;;;;15.30;55.51;98539.66;4805706;29;104059;-68
2021/10/31 05:43:30;;;;;;;;;7.50;6.50;;;;;15.31;55.34;98535.06;4825095;28;102561;-69
2021/10/31 05:45:59;;;;;;;;;7.00;6.00;;;;;15.30;55.36;98536.13;4805282;29;102262;-69
2021/10/31 05:48:26;;;;;;;;;8.75;6.25;;;;;15.31;55.69;98543.22;4806658;29;102670;-69
2021/10/31 05:50:54;;;;;;;;;6.25;5.00;;;;;15.30;55.69;98536.13;4804026;28;105870;-69
2021/10/31 05:53:22;;;;;;;;;8.00;7.00;;;;;15.30;55.50;98547.00;4818883;29;105292;-68
2021/10/31 05:55:50;;;;;;;;;7.75;7.00;;;;;15.29;55.55;98551.63;4807438;29;102546;-69
2021/10/31 05:58:17;;;;;;;;;7.00;6.00;;;;;15.28;55.85;98549.13;4824202;28;102567;-69
2021/10/31 06:00:44;;;;;;;;;7.00;6.00;;;;;15.27;55.81;98540.13;4797781;29;104088;-69
2021/10/31 06:03:11;;;;;;;;;8.25;8.00;;;;;15.27;55.57;98544.72;4800527;29;102469;-69
2021/10/31 06:05:39;;;;;;;;;10.50;8.50;;;;;15.24;55.42;98543.31;4820106;28;105117;-69
2021/10/31 06:08:13;;;;;;;;;6.00;5.25;;;;;15.23;55.67;98538.09;4824011;28;102734;-68
2021/10/31 06:10:40;;;;;;;;;6.50;5.75;;;;;15.23;55.51;98532.63;4816757;28;104239;-69
2021/10/31 06:13:07;;;;;;;;;6.00;6.00;;;;;15.22;55.83;98542.69;4819714;28;102602;-68
2021/10/31 06:15:34;;;;;;;;;7.00;6.00;;;;;15.22;55.81;98539.19;4798011;29;102578;-69
2021/10/31 06:18:01;;;;;;;;;6.25;5.00;;;;;15.21;55.76;98534.78;4822268;28;102560;-68
2021/10/31 06:20:28;;;;;;;;;9.00;8.00;;;;;15.19;55.83;98535.84;4799912;28;108924;-69
2021/10/31 06:22:55;;;;;;;;;6.75;6.75;;;;;15.20;55.59;98533.94;4816108;28;102524;-68
2021/10/31 06:25:22;;;;;;;;;5.00;5.00;;;;;15.19;55.80;98538.56;4787700;29;102639;-69
2021/10/31 06:27:49;;;;;;;;;8.75;7.75;;;;;15.20;55.72;98533.94;4790709;28;102488;-68
2021/10/31 06:30:16;;;;;;;;;7.00;6.75;;;;;15.20;55.29;98550.28;4798839;28;104066;-68
2021/10/31 06:32:43;;;;;;;;;9.00;8.25;;;;;15.21;55.64;98542.97;4820540;28;104115;-69
2021/10/31 06:35:10;;;;;;;;;7.50;7.25;;;;;15.21;55.52;98548.41;4802249;28;102403;-69
2021/10/31 06:37:37;;;;;;;;;7.00;6.75;;;;;15.20;55.59;98558.47;4811566;28;102578;-68
2021/10/31 06:40:05;;;;;;;;;7.75;6.75;;;;;15.21;55.65;98551.13;4807704;28;104291;-68
2021/10/31 06:42:32;;;;;;;;;8.00;6.00;;;;;15.19;55.21;98554.06;4775821;29;102956;-69
2021/10/31 06:44:59;;;;;;;;;6.50;6.25;;;;;15.19;55.70;98554.06;4787894;29;102902;-68
2021/10/31 06:47:27;;;;;;;;;6.00;6.00;;;;;15.17;55.52;98557.00;4807641;28;102638;-69
2021/10/31 06:49:54;;;;;;;;;9.00;8.00;;;;;15.22;55.48;98552.78;4806824;28;102923;-69
2021/10/31 06:52:22;;;;;;;;;6.00;4.25;;;;;15.26;55.47;98556.72;4806999;28;102587;-69
2021/10/31 06:54:50;;;;;;;;;8.50;7.50;;;;;15.25;55.41;98557.78;4794014;28;102402;-69
2021/10/31 06:57:17;;;;;;;;;7.00;6.25;;;;;15.23;55.28;98552.53;4801971;28;102720;-69
2021/10/31 06:59:44;;;;;;;;;8.50;7.00;;;;;15.22;55.52;98567.22;4803509;29;104542;-69
2021/10/31 07:02:11;;;;;;;;;8.50;6.75;;;;;15.22;55.41;98558.25;4806545;28;102358;-69
2021/10/31 07:04:39;;;;;;;;;7.25;6.00;;;;;15.24;55.76;98562.38;4807459;28;103488;-68
2021/10/31 07:07:06;;;;;;;;;8.50;6.75;;;;;15.26;55.64;98565.72;4785504;29;102700;-69
2021/10/31 07:09:33;;;;;;;;;9.75;8.00;;;;;15.27;55.34;98567.34;4808403;28;103651;-69
2021/10/31 07:12:00;;;;;;;;;8.00;7.50;;;;;15.30;55.47;98566.91;4802722;29;101964;-69
2021/10/31 07:14:27;;;;;;;;;8.50;8.00;;;;;15.31;55.49;98562.31;4801638;29;103219;-69
2021/10/31 07:16:55;;;;;;;;;8.25;7.50;;;;;15.33;55.60;98565.59;4806564;28;103566;-69
2021/10/31 07:19:22;;;;;;;;;10.00;7.00;;;;;15.33;55.18;98573.78;4800000;28;104290;-69
2021/10/31 07:21:49;;;;;;;;;8.00;7.50;;;;;15.34;55.16;98578.16;4800521;28;103019;-68
2021/10/31 07:24:16;;;;;;;;;8.00;6.75;;;;;15.36;54.93;98576.88;4808107;28;102532;-69
2021/10/31 07:26:43;;;;;;;;;8.25;7.00;;;;;15.34;55.60;98567.28;4803547;29;102593;-69
2021/10/31 07:29:10;;;;;;;;;7.00;7.00;;;;;15.37;55.35;98578.53;4800181;29;103696;-68
2021/10/31 07:31:38;;;;;;;;;6.25;6.25;;;;;15.39;54.99;98579.16;4804151;29;102823;-68
2021/10/31 07:34:08;;;;;;;;;8.25;7.25;;;;;15.39;55.39;98578.31;4803801;28;102425;-69
2021/10/31 07:36:35;;;;;;;;;7.00;6.75;;;;;15.39;54.84;98572.88;4811264;28;102733;-69
2021/10/31 07:39:03;;;;;;;;;10.50;9.25;;;;;15.41;55.00;98578.88;4807184;29;103640;-68
2021/10/31 07:41:30;;;;;;;;;8.00;7.50;;;;;15.38;55.22;98572.03;4822626;28;103320;-69
2021/10/31 07:43:57;;;;;;;;;4.25;4.25;;;;;15.42;55.30;98569.66;4820487;28;102217;-68
2021/10/31 07:46:24;;;;;;;;;6.00;5.50;;;;;15.42;54.97;98575.94;4830660;28;102608;-69
2021/10/31 07:48:51;;;;;;;;;8.75;7.50;;;;;15.44;55.02;98570.28;4826449;28;104348;-69
2021/10/31 07:51:18;;;;;;;;;7.25;6.50;;;;;15.44;54.58;98578.44;4801964;28;102403;-68
2021/10/31 07:53:45;;;;;;;;;7.25;7.25;;;;;15.45;54.68;98575.47;4804938;28;102377;-68
2021/10/31 07:56:16;;;;;;;;;8.50;7.00;;;;;15.46;54.97;98576.31;4803476;29;102741;-68
2021/10/31 07:58:46;;;;;;;;;7.75;7.00;;;;;15.46;54.69;98576.31;4792376;29;104110;-69
2021/10/31 08:01:13;;;;;;;;;6.50;5.75;;;;;15.44;54.89;98573.84;4823293;28;102998;-69
2021/10/31 08:03:40;;;;;;;;;7.75;7.75;;;;;15.45;54.93;98570.03;4827328;28;102406;-69
2021/10/31 08:06:09;;;;;;;;;7.25;6.25;;;;;15.45;54.76;98570.03;4805782;29;104383;-68
2021/10/31 08:08:36;;;;;;;;;9.00;7.00;;;;;15.46;54.75;98568.13;4827094;28;104532;-69
2021/10/31 08:11:03;;;;;;;;;12.25;8.00;;;;;15.49;54.72;98564.97;4814069;29;102940;-69
2021/10/31 08:13:30;;;;;;;;;7.25;7.00;;;;;15.47;54.88;98561.63;4806556;29;102630;-69
2021/10/31 08:15:58;;;;;;;;;8.00;8.00;;;;;15.49;54.72;98564.97;4809848;28;102745;-69
2021/10/31 08:18:25;;;;;;;;;9.00;7.00;;;;;15.51;54.61;98562.84;4826772;28;105562;-69
2021/10/31 08:20:53;;;;;;;;;8.00;7.00;;;;;15.51;54.57;98549.22;4794006;29;102449;-69
2021/10/31 08:23:20;;;;;;;;;7.75;7.00;;;;;15.53;54.69;98549.81;4822581;28;102772;-69
2021/10/31 08:25:48;;;;;;;;;8.75;7.25;;;;;15.54;54.51;98556.91;4812487;29;102584;-69
2021/10/31 08:28:16;;;;;;;;;10.75;8.00;;;;;15.54;54.54;98555.03;4805759;29;104476;-69
2021/10/31 08:30:56;;;;;;;;;10.75;8.50;;;;;15.54;54.33;98548.75;4801509;29;102681;-69
2021/10/31 08:33:43;;;;;;;;;6.00;6.00;;;;;15.58;54.32;98553.50;4837340;28;103741;-69
2021/10/31 08:36:12;;;;;;;;;9.50;6.50;;;;;15.59;54.37;98546.97;4808680;29;102465;-69
2021/10/31 08:38:39;;;;;;;;;8.75;7.00;;;;;15.58;54.13;98544.47;4816661;28;104431;-69
2021/10/31 08:41:06;;;;;;;;;7.75;7.00;;;;;15.60;53.98;98539.63;4817893;28;103831;-69
2021/10/31 08:43:33;;;;;;;;;7.25;7.00;;;;;15.59;53.86;98533.34;4830585;28;102542;-69
2021/10/31 08:46:02;;;;;;;;;6.50;4.25;;;;;15.59;54.78;98537.97;4814605;28;102347;-69
2021/10/31 08:48:30;;;;;;;;;7.00;6.00;;;;;15.59;54.18;98529.78;4809463;28;109012;-69
2021/10/31 08:50:58;;;;;;;;;6.25;5.50;;;;;15.61;54.46;98528.50;4789836;29;103371;-69
2021/10/31 08:53:27;;;;;;;;;7.25;6.25;;;;;15.61;54.29;98522.22;4812433;28;102152;-69
2021/10/31 08:55:55;;;;;;;;;7.00;6.75;;;;;15.61;54.20;98519.50;4804758;28;103695;-69
2021/10/31 08:58:22;;;;;;;;;7.25;7.25;;;;;15.62;54.40;98521.16;4831563;28;103812;-69
2021/10/31 09:00:49;;;;;;;;;8.50;7.25;;;;;15.63;54.32;98523.63;4829301;28;103876;-68
2021/10/31 09:03:17;;;;;;;;;7.75;7.75;;;;;15.65;53.99;98525.31;4802269;28;102925;-69
2021/10/31 09:05:44;;;;;;;;;7.75;7.00;;;;;15.65;54.56;98523.41;4812853;29;105033;-69
2021/10/31 09:08:11;;;;;;;;;7.50;6.00;;;;;15.63;54.10;98517.34;4802281;29;104051;-69
2021/10/31 09:10:38;;;;;;;;;9.25;7.75;;;;;15.66;54.39;98521.53;4784692;29;102820;-69
2021/10/31 09:13:05;;;;;;;;;6.75;6.00;;;;;15.66;54.29;98519.63;4794178;28;102307;-69
2021/10/31 09:15:32;;;;;;;;;7.00;5.50;;;;;15.67;53.51;98517.75;4814405;29;102751;-69
2021/10/31 09:17:59;;;;;;;;;8.00;7.00;;;;;15.66;54.32;98508.72;4821199;28;110230;-69
2021/10/31 09:20:27;;;;;;;;;7.25;6.75;;;;;15.69;53.96;98510.13;4811048;29;102616;-69
2021/10/31 09:22:55;;;;;;;;;5.75;5.75;;;;;15.67;54.18;98502.19;4808441;29;103144;-69
2021/10/31 09:25:23;;;;;;;;;6.00;6.00;;;;;15.67;54.41;98507.63;4803940;28;102408;-69
2021/10/31 09:27:50;;;;;;;;;6.50;5.75;;;;;15.69;54.24;98507.41;4825689;28;105348;-69
2021/10/31 09:30:17;;;;;;;;;5.25;5.25;;;;;15.70;54.02;98511.81;4825338;28;102806;-69
2021/10/31 09:32:47;;;;;;;;;7.25;6.75;;;;;15.70;54.03;98509.91;4803742;28;103620;-69
2021/10/31 09:35:27;;;;;;;;;6.25;5.50;;;;;15.70;53.84;98503.63;4832595;28;102212;-69
2021/10/31 09:37:58;;;;;;;;;8.75;8.50;;;;;15.70;53.87;98499.00;4804487;29;104177;-69
2021/10/31 09:40:25;;;;;;;;;6.50;6.00;;;;;15.71;53.97;98499.84;4803357;28;106303;-69
2021/10/31 09:42:53;;;;;;;;;6.75;6.00;;;;;15.69;54.04;98497.34;4805261;28;102750;-69
2021/10/31 09:45:21;;;;;;;;;5.75;5.00;;;;;15.69;54.24;98493.78;4805631;28;103390;-69
2021/10/31 09:47:58;;;;;;;;;7.25;7.00;;;;;15.70;53.73;98488.09;4801493;29;104391;-69
2021/10/31 09:50:26;;;;;;;;;7.75;7.00;;;;;15.71;53.82;98486.22;4829512;28;102994;-69
2021/10/31 09:52:53;;;;;;;;;6.50;6.00;;;;;15.71;53.69;98478.88;4802041;29;102689;-69
2021/10/31 09:55:21;;;;;;;;;6.50;5.50;;;;;15.73;53.62;98487.63;4799839;28;102732;-69
2021/10/31 09:57:48;;;;;;;;;6.50;6.00;;;;;15.72;53.83;98480.50;4795904;29;104224;-69
2021/10/31 10:00:15;;;;;;;;;7.00;5.75;;;;;15.73;53.53;98486.78;4807145;29;102205;-69
2021/10/31 10:03:01;;;;;;;;;7.00;6.25;;;;;15.72;54.39;98477.78;4802491;28;102664;-69
2021/10/31 10:05:29;;;;;;;;;6.75;5.75;;;;;15.74;54.04;98475.66;4802879;28;102236;-69
2021/10/31 10:08:08;;;;;;;;;5.75;5.75;;;;;15.75;53.05;98480.03;4807393;28;102915;-69
2021/10/31 10:10:54;;;;;;;;;0.00;0.00;;;;;15.75;54.11;98471.88;4840574;28;103581;-69
2021/10/31 10:13:26;;;;;;;;;6.25;5.75;;;;;15.75;53.51;98471.88;4808245;28;102526;-69
2021/10/31 10:16:27;;;;;;;;;7.00;6.25;;;;;15.76;53.86;98468.06;4807442;28;107232;-69
2021/10/31 10:18:55;;;;;;;;;5.75;5.75;;;;;15.77;53.69;98477.91;4800055;29;110714;-69
2021/10/31 10:21:28;;;;;;;;;6.00;6.00;;;;;15.78;54.38;98470.56;4810842;28;102596;-69
2021/10/31 10:24:11;;;;;;;;;5.75;5.25;;;;;15.79;53.97;98477.66;4802593;29;102666;-69
2021/10/31 10:26:43;;;;;;;;;6.00;5.00;;;;;15.80;53.94;98466.53;4808232;28;102535;-69
2021/10/31 10:29:13;;;;;;;;;7.75;5.00;;;;;15.82;54.09;98475.28;4824746;29;105260;-69
2021/10/31 10:31:41;;;;;;;;;5.00;5.00;;;;;15.83;53.42;98471.50;4807040;28;103003;-69
2021/10/31 10:34:12;;;;;;;;;7.25;6.00;;;;;15.84;54.10;98459.53;4807295;28;102365;-69
2021/10/31 10:36:45;;;;;;;;;5.75;5.00;;;;;15.86;53.84;98465.56;4800718;29;103447;-69
2021/10/31 10:39:16;;;;;;;;;5.00;5.00;;;;;15.87;53.86;98464.50;4798813;29;104058;-69
2021/10/31 10:41:44;;;;;;;;;5.00;5.00;;;;;15.91;53.72;98464.84;4823168;28;102481;-69
2021/10/31 10:44:24;;;;;;;;;5.75;5.00;;;;;15.92;54.05;98452.88;4825306;28;102432;-69
2021/10/31 10:46:57;;;;;;;;;6.00;5.00;;;;;15.93;53.65;98449.94;4832862;28;102325;-69
2021/10/31 10:49:24;;;;;;;;;5.75;5.25;;;;;15.94;53.66;98457.00;4805460;29;104106;-68
2021/10/31 10:52:04;;;;;;;;;6.00;5.00;;;;;15.95;53.22;98439.59;4823883;28;102583;-68
2021/10/31 10:54:31;;;;;;;;;5.00;5.00;;;;;15.96;53.43;98433.06;4829905;28;102532;-69
2021/10/31 10:57:05;;;;;;;;;5.00;5.00;;;;;15.98;53.62;98436.41;4807860;28;102212;-68
2021/10/31 10:59:34;;;;;;;;;5.50;4.00;;;;;16.01;54.04;98430.47;4806642;29;109000;-68
2021/10/31 11:02:07;;;;;;;;;5.00;5.00;;;;;16.02;53.95;98431.28;4801410;29;102227;-69
2021/10/31 11:04:35;;;;;;;;;5.50;5.00;;;;;16.04;54.21;98427.25;4824678;28;103327;-69
2021/10/31 11:07:04;;;;;;;;;6.75;5.50;;;;;16.04;53.68;98419.06;4810310;28;103165;-68
2021/10/31 11:09:42;;;;;;;;;5.00;5.00;;;;;16.05;53.20;98418.00;4813324;29;108821;-69
2021/10/31 11:12:34;;;;;;;;;6.75;6.25;;;;;16.08;53.99;98417.50;4805521;28;102229;-68
2021/10/31 11:15:05;;;;;;;;;4.25;4.00;;;;;16.09;53.50;98407.44;4821435;28;102936;-68
2021/10/31 11:17:33;;;;;;;;;4.50;4.50;;;;;16.12;53.70;98411.59;4841314;28;102520;-68
2021/10/31 11:20:00;;;;;;;;;6.75;5.50;;;;;16.10;53.90;98400.91;4837499;28;105307;-69
2021/10/31 11:22:29;;;;;;;;;4.67;4.67;;;;;16.16;53.67;98401.84;4808407;29;102610;-68
2021/10/31 11:24:56;;;;;;;;;5.00;5.00;;;;;16.18;53.47;98395.06;4819430;28;102604;-69
2021/10/31 11:27:25;;;;;;;;;8.00;6.00;;;;;16.20;53.31;98405.75;4803828;28;103795;-69
2021/10/31 11:29:53;;;;;;;;;4.00;4.00;;;;;16.20;53.62;98395.66;4822920;28;102884;-69
2021/10/31 11:32:21;;;;;;;;;5.00;5.00;;;;;16.24;53.35;98394.13;4824520;28;102301;-69
2021/10/31 11:34:50;;;;;;;;;7.00;6.00;;;;;16.28;53.73;98395.28;4821941;28;103053;-69